createdAt,value
2022-10-24T00:00:09.827Z,15.97
2022-10-24T00:03:01.088Z,16.01
2022-10-24T00:06:23.125Z,16.01
2022-10-24T00:09:51.625Z,16.01
2022-10-24T00:13:03.477Z,15.98
2022-10-24T00:14:32.254Z,15.95
2022-10-24T00:20:31.733Z,15.98
2022-10-24T00:22:02.055Z,16.00
2022-10-24T00:23:30.676Z,16.02
2022-10-24T00:26:56.475Z,16.04
2022-10-24T00:30:56.676Z,16.02
2022-10-24T00:32:25.182Z,16.02
2022-10-24T00:34:34.395Z,16.00
2022-10-24T00:36:13.296Z,15.98
2022-10-24T00:37:42.778Z,15.98
2022-10-24T00:45:44.653Z,16.00
2022-10-24T00:49:00.785Z,16.01
2022-10-24T00:50:59.424Z,15.98
2022-10-24T00:52:30.023Z,15.98
2022-10-24T00:54:47.930Z,15.98
2022-10-24T00:57:07.880Z,16.00
2022-10-24T01:02:49.768Z,16.00
2022-10-24T01:07:04.723Z,16.00
2022-10-24T01:10:43.393Z,15.97
2022-10-24T01:12:12.209Z,15.95
2022-10-24T01:16:12.850Z,15.95
2022-10-24T01:20:53.848Z,15.95
2022-10-24T01:23:31.624Z,15.98
2022-10-24T01:25:51.408Z,16.01
2022-10-24T01:29:52.821Z,16.12
2022-10-24T01:39:24.650Z,16.08
2022-10-24T01:40:57.234Z,16.05
2022-10-24T01:43:57.627Z,16.04
2022-10-24T01:45:26.726Z,16.02
2022-10-24T01:46:55.529Z,16.01
2022-10-24T01:48:44.265Z,16.01
2022-10-24T01:55:06.884Z,16.02
2022-10-24T01:59:03.234Z,16.01
2022-10-24T02:02:01.085Z,15.97
2022-10-24T02:03:58.948Z,15.98
2022-10-24T02:05:29.073Z,15.98
2022-10-24T02:07:26.730Z,15.97
2022-10-24T02:09:29.487Z,15.95
2022-10-24T02:11:57.332Z,15.92
2022-10-24T02:14:15.250Z,15.95
2022-10-24T02:22:06.686Z,15.95
2022-10-24T02:25:23.470Z,15.92
2022-10-24T02:27:26.205Z,15.92
2022-10-24T02:28:54.860Z,15.95
2022-10-24T02:30:22.316Z,15.95
2022-10-24T02:31:51.178Z,15.97
2022-10-24T02:33:20.126Z,15.97
2022-10-24T02:34:50.452Z,15.97
2022-10-24T02:38:37.398Z,16.04
2022-10-24T02:42:32.032Z,16.01
2022-10-24T02:44:23.489Z,15.97
2022-10-24T02:47:51.109Z,15.95
2022-10-24T02:50:48.078Z,15.98
2022-10-24T02:52:47.179Z,15.98
2022-10-24T02:55:17.614Z,15.97
2022-10-24T02:56:47.465Z,15.95
2022-10-24T02:58:18.229Z,15.95
2022-10-24T03:00:19.626Z,15.92
2022-10-24T03:04:44.526Z,15.97
2022-10-24T03:07:10.522Z,15.97
2022-10-24T03:09:59.427Z,15.94
2022-10-24T03:14:14.532Z,15.91
2022-10-24T03:16:14.303Z,15.86
2022-10-24T03:19:01.126Z,15.84
2022-10-24T03:21:00.571Z,15.84
2022-10-24T03:23:28.432Z,15.84
2022-10-24T03:26:16.633Z,15.86
2022-10-24T03:27:46.031Z,15.86
2022-10-24T03:31:30.928Z,15.92
2022-10-24T03:34:57.559Z,15.90
2022-10-24T03:36:55.502Z,15.86
2022-10-24T03:38:27.404Z,15.84
2022-10-24T03:40:55.211Z,15.82
2022-10-24T03:45:13.611Z,15.86
2022-10-24T03:46:41.468Z,15.86
2022-10-24T03:48:42.252Z,15.88
2022-10-24T03:50:39.110Z,15.88
2022-10-24T03:52:12.752Z,15.84
2022-10-24T03:54:07.113Z,15.82
2022-10-24T03:56:25.967Z,15.82
2022-10-24T04:00:21.441Z,15.79
2022-10-24T04:04:47.872Z,15.73
2022-10-24T04:06:18.207Z,15.72
2022-10-24T04:10:05.606Z,15.70
2022-10-24T04:11:35.549Z,15.68
2022-10-24T04:13:35.540Z,15.70
2022-10-24T04:16:02.682Z,15.68
2022-10-24T04:20:49.480Z,15.67
2022-10-24T04:25:38.143Z,15.61
2022-10-24T04:27:07.956Z,15.59
2022-10-24T04:28:17.820Z,15.59
2022-10-24T04:34:13.905Z,15.62
2022-10-24T04:36:15.692Z,15.59
2022-10-24T04:37:45.769Z,15.59
2022-10-24T04:40:16.351Z,15.59
2022-10-24T04:41:44.425Z,15.61
2022-10-24T04:44:03.097Z,15.64
2022-10-24T04:45:32.032Z,15.65
2022-10-24T04:47:12.914Z,15.65
2022-10-24T04:50:48.173Z,15.67
2022-10-24T04:53:47.119Z,15.67
2022-10-24T04:55:26.374Z,15.65
2022-10-24T04:58:16.904Z,15.62
2022-10-24T05:01:15.993Z,15.59
2022-10-24T05:03:47.706Z,15.58
2022-10-24T05:05:48.053Z,15.58
2022-10-24T05:07:15.068Z,15.55
2022-10-24T05:15:04.730Z,15.54
2022-10-24T05:17:59.060Z,15.51
2022-10-24T05:19:28.037Z,15.49
2022-10-24T05:21:19.547Z,15.49
2022-10-24T05:26:17.743Z,15.44
2022-10-24T05:27:49.478Z,15.44
2022-10-24T05:30:16.274Z,15.42
2022-10-24T05:38:07.132Z,15.39
2022-10-24T05:41:29.192Z,15.42
2022-10-24T05:43:57.033Z,15.40
2022-10-24T05:47:00.334Z,15.40
2022-10-24T05:49:58.038Z,15.42
2022-10-24T05:55:42.839Z,15.44
2022-10-24T05:59:27.134Z,15.42
2022-10-24T06:02:08.652Z,15.43
2022-10-24T06:05:29.191Z,15.40
2022-10-24T06:10:40.086Z,15.40
2022-10-24T06:13:33.829Z,15.40
2022-10-24T06:15:36.826Z,15.39
2022-10-24T06:18:13.771Z,15.35
2022-10-24T06:22:24.139Z,15.29
2022-10-24T06:29:33.666Z,15.35
2022-10-24T06:32:11.165Z,15.37
2022-10-24T06:35:28.055Z,15.40
2022-10-24T06:36:57.230Z,15.40
2022-10-24T06:47:54.522Z,15.51
2022-10-24T06:51:03.055Z,15.52
2022-10-24T06:52:37.639Z,15.51
2022-10-24T06:54:54.349Z,15.47
2022-10-24T06:57:48.173Z,15.46
2022-10-24T07:00:55.008Z,15.46
2022-10-24T07:02:24.044Z,15.47
2022-10-24T07:05:52.742Z,15.52
2022-10-24T07:16:14.672Z,15.54
2022-10-24T07:18:14.624Z,15.58
2022-10-24T07:20:03.332Z,15.62
2022-10-24T07:22:04.199Z,15.67
2022-10-24T07:23:31.200Z,15.67
2022-10-24T07:26:53.589Z,15.67
2022-10-24T07:29:19.922Z,15.68
2022-10-24T07:33:42.177Z,15.75
2022-10-24T07:36:02.027Z,15.77
2022-10-24T07:37:58.927Z,15.80
2022-10-24T07:40:18.798Z,15.83
2022-10-24T07:42:48.339Z,15.84
2022-10-24T07:44:17.300Z,15.84
2022-10-24T07:46:17.139Z,15.88
2022-10-24T07:49:45.347Z,15.97
2022-10-24T07:56:46.040Z,16.20
2022-10-24T07:58:15.752Z,16.23
2022-10-24T08:00:32.605Z,16.26
2022-10-24T08:05:26.935Z,16.29
2022-10-24T08:07:55.610Z,16.32
2022-10-24T08:11:16.815Z,16.29
2022-10-24T08:15:51.289Z,16.29
2022-10-24T08:20:47.839Z,16.32
2022-10-24T08:25:59.955Z,16.42
2022-10-24T08:33:30.529Z,16.71
2022-10-24T08:36:03.320Z,16.76
2022-10-24T08:39:21.977Z,16.84
2022-10-24T08:40:52.990Z,16.89
2022-10-24T08:45:51.915Z,16.97
2022-10-24T08:47:21.569Z,16.97
2022-10-24T08:49:21.486Z,16.99
2022-10-24T08:50:52.349Z,16.97
2022-10-24T08:52:43.422Z,16.96
2022-10-24T08:55:04.744Z,16.91
2022-10-24T08:58:40.143Z,16.84
2022-10-24T08:59:40.837Z,16.83
2022-10-24T09:00:40.130Z,16.81
2022-10-24T09:01:40.256Z,16.76
2022-10-24T09:03:10.217Z,16.76
2022-10-24T09:06:30.925Z,16.74
2022-10-24T09:09:27.364Z,16.71
2022-10-24T09:14:44.415Z,16.69
2022-10-24T09:16:44.429Z,16.65
2022-10-24T09:20:01.051Z,16.66
2022-10-24T09:26:11.046Z,16.32
2022-10-24T09:27:41.879Z,16.31
2022-10-24T09:29:08.899Z,16.26
2022-10-24T09:30:39.747Z,16.24
2022-10-24T09:38:14.195Z,16.23
2022-10-24T09:40:01.226Z,16.26
2022-10-24T09:41:30.146Z,16.29
2022-10-24T09:43:49.453Z,16.33
2022-10-24T09:45:21.196Z,16.35
2022-10-24T09:48:36.616Z,16.41
2022-10-24T09:50:09.540Z,16.42
2022-10-24T09:52:21.048Z,16.39
2022-10-24T09:56:29.107Z,16.41
2022-10-24T10:03:06.836Z,16.47
2022-10-24T10:05:25.583Z,16.51
2022-10-24T10:12:41.031Z,16.78
2022-10-24T10:14:12.879Z,16.83
2022-10-24T10:17:56.908Z,17.11
2022-10-24T10:27:51.971Z,17.46
2022-10-24T10:29:58.813Z,17.54
2022-10-24T10:31:47.478Z,17.67
2022-10-24T10:35:07.487Z,17.64
2022-10-24T10:36:59.171Z,17.63
2022-10-24T10:38:55.995Z,17.56
2022-10-24T10:40:27.560Z,17.54
2022-10-24T10:43:24.348Z,17.59
2022-10-24T10:49:07.670Z,17.54
2022-10-24T10:51:07.381Z,17.51
2022-10-24T10:53:23.494Z,17.49
2022-10-24T11:04:09.679Z,17.67
2022-10-24T11:05:58.370Z,17.64
2022-10-24T11:18:45.191Z,17.45
2022-10-24T11:20:07.943Z,17.46
2022-10-24T11:20:45.145Z,17.51
2022-10-24T11:23:03.783Z,17.63
2022-10-24T11:26:14.552Z,17.94
2022-10-24T11:28:42.245Z,18.00
2022-10-24T11:30:15.110Z,17.98
2022-10-24T11:33:10.873Z,18.04
2022-10-24T11:36:27.641Z,18.00
2022-10-24T11:40:54.834Z,17.98
2022-10-24T11:42:52.280Z,17.98
2022-10-24T11:45:40.402Z,17.98
2022-10-24T11:47:31.789Z,18.00
2022-10-24T11:50:07.068Z,18.33
2022-10-24T11:51:35.931Z,18.33
2022-10-24T11:58:19.595Z,18.13
2022-10-24T12:00:17.450Z,18.07
2022-10-24T12:02:18.434Z,18.04
2022-10-24T12:06:05.574Z,17.98
2022-10-24T12:07:33.090Z,17.95
2022-10-24T12:10:21.544Z,17.83
2022-10-24T12:13:08.702Z,17.71
2022-10-24T12:18:48.749Z,17.42
2022-10-24T12:22:07.650Z,17.33
2022-10-24T12:25:27.255Z,17.34
2022-10-24T12:30:30.749Z,17.33
2022-10-24T12:33:03.478Z,17.34
2022-10-24T12:38:53.741Z,17.38
2022-10-24T12:40:24.544Z,17.38
2022-10-24T12:45:31.545Z,17.41
2022-10-24T12:53:44.703Z,17.24
2022-10-24T12:56:50.301Z,17.22
2022-10-24T12:58:18.344Z,17.16
2022-10-24T12:59:47.541Z,17.04
2022-10-24T13:01:19.544Z,16.94
2022-10-24T13:04:57.002Z,16.71
2022-10-24T13:06:25.960Z,16.68
2022-10-24T13:07:55.205Z,16.60
2022-10-24T13:13:20.192Z,16.41
2022-10-24T13:14:50.408Z,16.33
2022-10-24T13:16:55.134Z,16.32
2022-10-24T13:19:49.568Z,16.23
2022-10-24T13:21:19.931Z,16.21
2022-10-24T13:23:18.273Z,16.21
2022-10-24T13:27:46.114Z,16.15
2022-10-24T13:30:15.787Z,16.05
2022-10-24T13:34:04.890Z,16.00
2022-10-24T13:41:00.542Z,15.90
2022-10-24T13:48:22.048Z,15.84
2022-10-24T13:50:22.920Z,15.83
2022-10-24T13:54:14.542Z,15.77
2022-10-24T13:56:09.140Z,15.79
2022-10-24T13:57:39.199Z,15.82
2022-10-24T13:59:07.195Z,15.82
2022-10-24T14:00:55.842Z,15.84
2022-10-24T14:04:30.314Z,15.82
2022-10-24T14:17:13.937Z,15.77
2022-10-24T14:21:57.219Z,15.77
2022-10-24T14:24:47.203Z,15.77
2022-10-24T14:29:59.034Z,15.79
2022-10-24T14:35:30.236Z,15.77
2022-10-24T14:39:04.546Z,15.76
2022-10-24T14:43:24.062Z,15.70
2022-10-24T14:46:53.067Z,15.73
2022-10-24T14:49:48.043Z,15.75
2022-10-24T14:52:02.824Z,15.75
2022-10-24T14:58:27.832Z,15.76
2022-10-24T15:01:06.032Z,15.76
2022-10-24T15:02:38.887Z,15.77
2022-10-24T15:05:57.730Z,15.82
2022-10-24T15:08:22.528Z,15.82
2022-10-24T15:10:13.165Z,15.82
2022-10-24T15:13:00.615Z,15.82
2022-10-24T15:17:33.170Z,15.76
2022-10-24T15:19:03.124Z,15.76
2022-10-24T15:21:00.510Z,15.73
2022-10-24T15:23:05.717Z,15.68
2022-10-24T15:24:53.388Z,15.68
2022-10-24T15:26:22.350Z,15.70
2022-10-24T15:27:54.130Z,15.68
2022-10-24T15:31:52.859Z,15.70
2022-10-24T15:34:22.671Z,15.70
2022-10-24T15:36:20.664Z,15.70
2022-10-24T15:39:50.649Z,15.70
2022-10-24T15:42:22.555Z,15.67
2022-10-24T15:46:52.940Z,15.62
2022-10-24T15:48:34.377Z,15.58
2022-10-24T15:50:31.986Z,15.57
2022-10-24T15:54:47.727Z,15.52
2022-10-24T15:57:19.735Z,15.49
2022-10-24T15:58:50.569Z,15.49
2022-10-24T16:02:22.981Z,15.46
2022-10-24T16:03:52.695Z,15.46
2022-10-24T16:05:21.544Z,15.43
2022-10-24T16:08:08.815Z,15.42
2022-10-24T16:11:06.176Z,15.37
2022-10-24T16:12:36.383Z,15.35
2022-10-24T16:14:05.361Z,15.33
2022-10-24T16:15:33.361Z,15.29
2022-10-24T16:19:54.541Z,15.25
2022-10-24T16:21:23.024Z,15.22
2022-10-24T16:26:25.937Z,15.21
2022-10-24T16:28:15.675Z,15.19
2022-10-24T16:29:45.854Z,15.19
2022-10-24T16:31:14.204Z,15.21
2022-10-24T16:32:44.954Z,15.22
2022-10-24T16:35:23.103Z,15.19
2022-10-24T16:36:51.213Z,15.21
2022-10-24T16:38:51.849Z,15.22
2022-10-24T16:41:42.227Z,15.21
2022-10-24T16:43:12.187Z,15.24
2022-10-24T16:46:33.039Z,15.21
2022-10-24T16:49:39.927Z,15.06
2022-10-24T16:51:09.905Z,15.00
2022-10-24T16:52:38.869Z,14.92
2022-10-24T16:55:32.381Z,14.85
2022-10-24T16:58:21.481Z,14.73
2022-10-24T17:00:53.592Z,14.66
2022-10-24T17:02:25.353Z,14.66
2022-10-24T17:04:55.068Z,14.59
2022-10-24T17:12:36.843Z,14.50
2022-10-24T17:25:51.383Z,14.29
2022-10-24T17:27:18.350Z,14.26
2022-10-24T17:30:30.106Z,14.14
2022-10-24T17:33:18.081Z,14.08
2022-10-24T17:34:47.146Z,14.07
2022-10-24T17:39:34.788Z,13.99
2022-10-24T17:43:41.757Z,13.95
2022-10-24T17:46:37.552Z,13.90
2022-10-24T17:48:08.369Z,13.85
2022-10-24T17:49:35.518Z,13.83
2022-10-24T17:56:34.606Z,13.75
2022-10-24T18:01:20.846Z,13.72
2022-10-24T18:09:08.284Z,13.67
2022-10-24T18:14:51.992Z,13.59
2022-10-24T18:21:50.896Z,13.53
2022-10-24T18:23:48.759Z,13.49
2022-10-24T18:25:48.879Z,13.49
2022-10-24T18:28:26.820Z,13.46
2022-10-24T18:30:27.469Z,13.42
2022-10-24T18:34:25.796Z,13.39
2022-10-24T18:36:23.639Z,13.37
2022-10-24T18:39:26.442Z,13.33
2022-10-24T18:41:22.325Z,13.31
2022-10-24T18:42:52.194Z,13.30
2022-10-24T18:46:57.416Z,13.28
2022-10-24T18:48:58.175Z,13.25
2022-10-24T18:52:14.229Z,13.20
2022-10-24T18:54:15.490Z,13.19
2022-10-24T18:56:47.953Z,13.16
2022-10-24T18:59:19.805Z,13.13
2022-10-24T19:01:51.602Z,13.12
2022-10-24T19:03:21.452Z,13.09
2022-10-24T19:08:28.763Z,13.00
2022-10-24T19:10:56.878Z,12.97
2022-10-24T19:15:32.324Z,12.90
2022-10-24T19:17:02.991Z,12.90
2022-10-24T19:23:44.224Z,12.87
2022-10-24T19:36:32.698Z,12.83
2022-10-24T19:38:45.162Z,12.85
2022-10-24T19:46:20.581Z,12.83
2022-10-24T19:47:58.946Z,12.86
2022-10-24T19:56:40.712Z,12.97
2022-10-24T19:59:28.451Z,13.03
2022-10-24T20:03:13.875Z,13.12
2022-10-24T20:04:49.040Z,13.15
2022-10-24T20:08:09.150Z,13.20
2022-10-24T20:10:02.170Z,13.25
2022-10-24T20:11:31.941Z,13.28
2022-10-24T20:13:55.139Z,13.30
2022-10-24T20:15:25.618Z,13.30
2022-10-24T20:17:15.668Z,13.30
2022-10-24T20:21:11.443Z,13.33
2022-10-24T20:23:51.908Z,13.33
2022-10-24T20:28:58.424Z,13.35
2022-10-24T20:31:28.259Z,13.33
2022-10-24T20:34:37.742Z,13.37
2022-10-24T20:36:08.304Z,13.37
2022-10-24T20:38:05.698Z,13.33
2022-10-24T20:39:39.691Z,13.33
2022-10-24T20:42:09.530Z,13.35
2022-10-24T20:43:38.456Z,13.33
2022-10-24T20:45:08.355Z,13.33
2022-10-24T20:48:45.595Z,13.31
2022-10-24T20:51:14.743Z,13.31
2022-10-24T20:52:41.856Z,13.33
2022-10-24T20:56:42.013Z,13.31
2022-10-24T20:59:25.310Z,13.31
2022-10-24T21:02:44.475Z,13.31
2022-10-24T21:04:44.075Z,13.30
2022-10-24T21:07:03.656Z,13.30
2022-10-24T21:10:19.250Z,13.31
2022-10-24T21:15:56.780Z,13.27
2022-10-24T21:17:28.151Z,13.27
2022-10-24T21:18:56.627Z,13.25
2022-10-24T21:21:15.811Z,13.27
2022-10-24T21:22:45.402Z,13.25
2022-10-24T21:24:13.910Z,13.27
2022-10-24T21:25:47.933Z,13.28
2022-10-24T21:29:42.763Z,13.28
2022-10-24T21:32:40.798Z,13.25
2022-10-24T21:35:43.145Z,13.25
2022-10-24T21:39:47.491Z,13.25
2022-10-24T21:41:46.296Z,13.23
2022-10-24T21:43:16.210Z,13.25
2022-10-24T21:45:15.046Z,13.25
2022-10-24T21:52:03.711Z,13.30
2022-10-24T21:54:06.009Z,13.31
2022-10-24T21:56:03.146Z,13.37
2022-10-24T22:00:12.390Z,13.38
2022-10-24T22:03:48.708Z,13.38
2022-10-24T22:06:20.095Z,13.39
2022-10-24T22:07:54.397Z,13.39
2022-10-24T22:10:04.134Z,13.41
2022-10-24T22:11:32.129Z,13.41
2022-10-24T22:13:31.107Z,13.41
2022-10-24T22:17:41.808Z,13.39
2022-10-24T22:24:44.721Z,13.37
2022-10-24T22:26:34.393Z,13.35
2022-10-24T22:28:34.949Z,13.33
2022-10-24T22:30:23.576Z,13.31
2022-10-24T22:36:16.333Z,13.28
2022-10-24T22:38:34.313Z,13.27
2022-10-24T22:40:05.552Z,13.28
2022-10-24T22:41:35.329Z,13.28
2022-10-24T22:43:09.683Z,13.27
2022-10-24T22:45:37.282Z,13.23
2022-10-24T22:47:37.923Z,13.22
2022-10-24T22:49:56.433Z,13.22
2022-10-24T22:51:55.555Z,13.20
2022-10-24T22:55:03.758Z,13.20
2022-10-24T22:57:01.423Z,13.18
2022-10-24T23:01:21.387Z,13.16
2022-10-24T23:02:51.227Z,13.16
2022-10-24T23:06:56.657Z,13.11
2022-10-24T23:09:23.390Z,13.08
2022-10-24T23:10:52.433Z,13.08
2022-10-24T23:13:54.423Z,13.04
2022-10-24T23:15:24.354Z,13.03
2022-10-24T23:18:27.235Z,13.01
2022-10-24T23:20:27.219Z,13.00
2022-10-24T23:22:28.097Z,12.97
2022-10-24T23:27:39.334Z,12.93
2022-10-24T23:29:08.909Z,12.91
2022-10-24T23:32:18.448Z,12.91
2022-10-24T23:35:18.696Z,12.91
2022-10-24T23:41:30.869Z,12.87
2022-10-24T23:45:08.287Z,12.86
2022-10-24T23:46:37.689Z,12.86
2022-10-24T23:53:50.451Z,12.83
2022-10-24T23:55:22.061Z,12.86
2022-10-24T23:56:50.246Z,12.85
2022-10-24T23:58:20.168Z,12.83
